PERFIL

Confira todos os problemas que este usuário já resolveu.

Problema Nome do Problema Ranking Submissão Linguagem Tempo Data da Submissão
1061 Tempo de um Evento 10792º 20993079 C 0.000 30/12/2020 21:09:01
1000 Hello World! 05382º 20992141 C 0.000 30/12/2020 20:11:57
1004 Produto Simples 21662º 15053769 Python 3 0.024 31/07/2019 02:26:41
1003 Soma Simples 26593º 15053753 Python 3 0.028 31/07/2019 02:23:06
1002 Área do Círculo 27441º 15053449 Python 3 0.028 31/07/2019 01:21:32
1001 Extremamente Básico 32099º 15053270 Python 3 0.024 31/07/2019 01:05:11
1188 Área Inferior 04550º 13447744 C 0.000 29/03/2019 19:13:38
2930 TCC da Depressão Natalino 00035º 13447254 C 0.000 29/03/2019 18:52:42
2868 Errrou! 00012º 11800006 C 0.000 29/09/2018 23:47:01
1160 Crescimento Populacional 02100º 11697444 C 0.000 22/09/2018 19:17:03
2139 Natal de Pedrinho 00487º 11685899 C 0.000 21/09/2018 21:54:09
2061 As Abas de Péricles 00971º 11685304 C 0.000 21/09/2018 20:50:41
2670 Máquina de Café 00277º 9847816 C 0.000 07/04/2018 01:41:28
2029 Reservatório de Mel 00872º 9847598 C 0.000 07/04/2018 01:22:19
2057 Fuso Horário 01345º 9847294 C 0.000 07/04/2018 01:06:31
1087 Dama 01459º 8960080 C 0.000 20/12/2017 16:05:01
1068 Balanço de Parênteses I 02007º 8861698 C 0.008 04/12/2017 00:45:23
1192 O jogo Matemático de Paula 01770º 8842087 C 0.020 01/12/2017 00:25:00
1546 Feedback 01020º 7660571 C 0.004 31/07/2017 23:02:32
1467 Zerinho ou Um 01979º 7657818 C 0.012 31/07/2017 15:45:10
1397 Jogo do Maior 01432º 7657725 C 0.008 31/07/2017 15:23:51
1387 Og 01311º 7657685 C 0.008 31/07/2017 15:17:19
1329 Cara ou Coroa 02100º 7657671 C 0.008 31/07/2017 15:13:45
1216 Getline One 01121º 7657587 C 0.248 31/07/2017 14:56:35
2377 Pedágio 00108º 7656066 C 0.000 31/07/2017 03:55:01
2374 Pneu 00072º 7656030 C 0.000 31/07/2017 03:46:11
2373 Garçom 00028º 7656012 C 0.000 31/07/2017 03:43:13
2375 Sedex 00068º 7655993 C 0.000 31/07/2017 03:38:14
2547 Montanha-Russa 00044º 7655819 C 0.000 31/07/2017 02:56:38
2582 System of a Download 00093º 7655587 C 0.000 31/07/2017 02:05:04
1 of 6